createdAt,value
2017-09-04T00:00:56.060Z,95060.48
2017-09-04T00:03:23.688Z,95074.55
2017-09-04T00:05:54.896Z,95062.25
2017-09-04T00:08:24.696Z,95063.59
2017-09-04T00:10:52.474Z,95072.98
2017-09-04T00:13:20.642Z,95074.16
2017-09-04T00:21:49.977Z,95072.39
2017-09-04T00:24:28.178Z,95069.06
2017-09-04T00:27:42.993Z,95073.58
2017-09-04T00:30:55.237Z,95080.38
2017-09-04T00:36:51.069Z,95081.56
2017-09-04T00:39:24.635Z,95080.00
2017-09-04T00:41:58.562Z,95082.92
2017-09-04T00:44:37.882Z,95081.37
2017-09-04T00:47:17.117Z,95074.16
2017-09-04T00:52:27.921Z,95079.81
2017-09-04T00:54:57.702Z,95083.13
2017-09-04T00:57:25.277Z,95082.95
2017-09-04T00:59:55.771Z,95079.41
2017-09-04T01:02:25.183Z,95070.61
2017-09-04T01:04:52.782Z,95077.08
2017-09-04T01:07:21.256Z,95071.80
2017-09-04T01:09:48.902Z,95076.48
2017-09-04T01:12:16.597Z,95072.96
2017-09-04T01:14:44.266Z,95075.70
2017-09-04T01:17:11.882Z,95072.19
2017-09-04T01:19:39.561Z,95075.31
2017-09-04T01:22:08.270Z,95076.50
2017-09-04T01:24:36.594Z,95070.05
2017-09-04T01:27:04.178Z,95071.80
2017-09-04T01:29:32.548Z,95074.92
2017-09-04T01:32:00.197Z,95068.88
2017-09-04T01:34:28.771Z,95079.22
2017-09-04T01:36:56.340Z,95075.33
2017-09-04T01:39:31.150Z,95071.63
2017-09-04T01:42:00.283Z,95073.55
2017-09-04T01:44:31.614Z,95082.14
2017-09-04T01:47:01.372Z,95078.25
2017-09-04T01:49:30.119Z,95077.66
2017-09-04T01:51:59.538Z,95083.73
2017-09-04T01:54:30.052Z,95084.50
2017-09-04T01:57:01.725Z,95087.63
2017-09-04T01:59:31.502Z,95092.87
2017-09-04T02:01:59.432Z,95097.19
2017-09-04T02:04:27.534Z,95105.77
2017-09-04T02:06:56.107Z,95104.75
2017-09-04T02:09:37.064Z,95109.27
2017-09-04T02:12:04.733Z,95112.81
2017-09-04T02:14:32.428Z,95118.09
2017-09-04T02:17:02.062Z,95113.56
2017-09-04T02:19:29.764Z,95117.69
2017-09-04T02:21:57.460Z,95112.80
2017-09-04T02:24:25.110Z,95112.03
2017-09-04T02:26:52.684Z,95119.03
2017-09-04T02:29:20.286Z,95119.23
2017-09-04T02:31:47.956Z,95121.00
2017-09-04T02:34:15.561Z,95113.56
2017-09-04T02:36:43.232Z,95118.80
2017-09-04T02:39:10.970Z,95125.56
2017-09-04T02:41:38.755Z,95125.14
2017-09-04T02:44:08.384Z,95124.63
2017-09-04T02:46:38.274Z,95134.52
2017-09-04T02:56:00.801Z,95132.66
2017-09-04T02:58:38.141Z,95137.33
2017-09-04T03:04:00.160Z,95114.27
2017-09-04T03:06:28.733Z,95147.97
2017-09-04T03:08:57.004Z,95145.42
2017-09-04T03:11:28.383Z,95143.23
2017-09-04T03:14:00.131Z,95151.83
2017-09-04T03:16:29.069Z,95155.92
2017-09-04T03:27:42.646Z,95181.61
2017-09-04T03:30:11.742Z,95177.27
2017-09-04T03:32:41.192Z,95184.48
2017-09-04T03:35:08.930Z,95197.59
2017-09-04T03:37:38.281Z,95191.59
2017-09-04T03:40:08.096Z,95188.11
2017-09-04T03:42:35.787Z,95189.69
2017-09-04T03:45:03.476Z,95195.41
2017-09-04T03:47:31.224Z,95194.05
2017-09-04T03:49:59.519Z,95166.92
2017-09-04T03:52:27.824Z,95198.88
2017-09-04T03:54:55.535Z,95201.55
2017-09-04T03:57:23.204Z,95208.59
2017-09-04T03:59:50.999Z,95201.44
2017-09-04T04:02:19.511Z,95208.30
2017-09-04T04:04:47.581Z,95209.19
2017-09-04T04:07:15.270Z,95221.67
2017-09-04T04:09:48.484Z,95218.91
2017-09-04T04:12:33.641Z,95224.86
2017-09-04T04:15:17.400Z,95230.27
2017-09-04T04:18:06.030Z,95232.81
2017-09-04T04:20:40.468Z,95234.14
2017-09-04T04:23:08.063Z,95237.50
2017-09-04T04:25:37.136Z,95236.09
2017-09-04T04:28:10.990Z,95234.74
2017-09-04T04:30:47.289Z,95233.38
2017-09-04T04:33:15.013Z,95239.95
2017-09-04T04:35:42.621Z,95252.85
2017-09-04T04:38:10.271Z,95247.95
2017-09-04T04:40:48.800Z,95253.27
2017-09-04T04:43:17.228Z,95254.97
2017-09-04T04:45:44.803Z,95259.72
2017-09-04T04:48:12.646Z,95261.55
2017-09-04T04:50:40.183Z,95262.45
2017-09-04T04:53:08.014Z,95260.97
2017-09-04T04:55:36.057Z,95255.52
2017-09-04T04:58:03.635Z,95265.46
2017-09-04T05:00:31.203Z,95252.98
2017-09-04T05:02:58.727Z,95256.09
2017-09-04T05:05:26.255Z,95263.53
2017-09-04T05:07:53.875Z,95269.57
2017-09-04T05:10:21.392Z,95268.16
2017-09-04T05:12:48.907Z,95264.90
2017-09-04T05:15:16.446Z,95272.24
2017-09-04T05:17:43.989Z,95270.93
2017-09-04T05:20:11.516Z,95274.25
2017-09-04T05:22:39.059Z,95266.70
2017-09-04T05:25:06.569Z,95280.66
2017-09-04T05:27:34.162Z,95285.66
2017-09-04T05:30:01.956Z,95290.05
2017-09-04T05:32:29.494Z,95296.45
2017-09-04T05:34:57.002Z,95288.28
2017-09-04T05:37:24.516Z,95287.34
2017-09-04T05:39:52.060Z,95284.48
2017-09-04T05:42:19.593Z,95292.02
2017-09-04T05:44:47.128Z,95287.98
2017-09-04T05:47:14.663Z,95292.32
2017-09-04T05:49:42.204Z,95291.25
2017-09-04T05:52:09.705Z,95293.19
2017-09-04T05:54:37.276Z,95299.64
2017-09-04T05:57:04.837Z,95308.22
2017-09-04T05:59:32.724Z,95305.23
2017-09-04T06:02:00.308Z,95305.53
2017-09-04T06:04:27.840Z,95318.31
2017-09-04T06:06:55.560Z,95316.61
2017-09-04T06:09:23.214Z,95315.06
2017-09-04T06:11:50.746Z,95323.55
2017-09-04T06:14:18.373Z,95322.98
2017-09-04T06:16:46.029Z,95326.12
2017-09-04T06:19:13.561Z,95333.16
2017-09-04T06:21:41.376Z,95339.45
2017-09-04T06:24:09.163Z,95338.33
2017-09-04T06:26:36.700Z,95349.44
2017-09-04T06:29:04.255Z,95338.34
2017-09-04T06:31:31.819Z,95343.87
2017-09-04T06:33:59.400Z,95341.28
2017-09-04T06:36:26.952Z,95342.23
2017-09-04T06:38:54.530Z,95345.41
2017-09-04T06:41:22.273Z,95352.21
2017-09-04T06:43:49.826Z,95340.02
2017-09-04T06:46:17.405Z,95347.32
2017-09-04T06:48:44.937Z,95354.39
2017-09-04T06:51:12.479Z,95355.80
2017-09-04T06:53:40.072Z,95351.72
2017-09-04T06:56:07.646Z,95373.80
2017-09-04T06:58:35.403Z,95376.52
2017-09-04T07:01:02.985Z,95383.48
2017-09-04T07:03:30.750Z,95380.30
2017-09-04T07:05:58.355Z,95385.36
2017-09-04T07:08:25.955Z,95404.23
2017-09-04T07:10:53.516Z,95404.30
2017-09-04T07:13:21.275Z,95403.03
2017-09-04T07:15:48.866Z,95405.87
2017-09-04T07:18:16.416Z,95416.05
2017-09-04T07:20:43.971Z,95412.04
2017-09-04T07:23:12.495Z,95416.14
2017-09-04T07:25:40.246Z,95420.64
2017-09-04T07:28:08.080Z,95417.17
2017-09-04T07:30:35.765Z,95428.67
2017-09-04T07:33:03.336Z,95426.59
2017-09-04T07:35:30.899Z,95423.43
2017-09-04T07:37:58.499Z,95425.41
2017-09-04T07:40:26.076Z,95433.05
2017-09-04T07:42:53.597Z,95431.45
2017-09-04T07:45:21.181Z,95430.11
2017-09-04T07:47:48.909Z,95435.30
2017-09-04T07:50:20.069Z,95434.55
2017-09-04T07:52:47.637Z,95430.59
2017-09-04T07:55:15.229Z,95426.20
2017-09-04T07:57:42.766Z,95432.14
2017-09-04T08:00:10.387Z,95427.34
2017-09-04T08:02:37.961Z,95414.60
2017-09-04T08:05:05.516Z,95419.25
2017-09-04T08:07:33.152Z,95425.21
2017-09-04T08:10:00.732Z,95442.63
2017-09-04T08:12:28.249Z,95442.31
2017-09-04T08:14:55.820Z,95438.34
2017-09-04T08:17:23.390Z,95440.43
2017-09-04T08:19:50.916Z,95432.91
2017-09-04T08:22:18.953Z,95436.33
2017-09-04T08:24:46.516Z,95452.00
2017-09-04T08:27:14.077Z,95447.88
2017-09-04T08:29:41.613Z,95451.08
2017-09-04T08:32:09.181Z,95442.81
2017-09-04T08:34:36.913Z,95454.09
2017-09-04T08:37:04.436Z,95455.27
2017-09-04T08:39:32.028Z,95456.98
2017-09-04T08:41:59.619Z,95458.84
2017-09-04T08:44:27.399Z,95459.57
2017-09-04T08:46:55.002Z,95459.34
2017-09-04T08:49:22.763Z,95452.83
2017-09-04T08:51:50.317Z,95458.19
2017-09-04T08:54:17.907Z,95459.77
2017-09-04T08:56:45.515Z,95453.21
2017-09-04T08:59:13.081Z,95454.88
2017-09-04T09:01:40.677Z,95447.06
2017-09-04T09:04:08.423Z,95454.62
2017-09-04T09:06:35.972Z,95456.80
2017-09-04T09:09:03.588Z,95449.70
2017-09-04T09:11:31.158Z,95457.63
2017-09-04T09:13:58.705Z,95454.55
2017-09-04T09:16:26.643Z,95463.88
2017-09-04T09:18:54.173Z,95456.41
2017-09-04T09:21:21.743Z,95449.38
2017-09-04T09:23:49.375Z,95457.48
2017-09-04T09:26:16.996Z,95450.95
2017-09-04T09:28:44.546Z,95461.30
2017-09-04T09:31:12.197Z,95462.15
2017-09-04T09:33:39.952Z,95458.75
2017-09-04T09:36:07.494Z,95465.36
2017-09-04T09:38:35.088Z,95447.95
2017-09-04T09:41:02.645Z,95448.00
2017-09-04T09:43:30.251Z,95455.73
2017-09-04T09:45:57.847Z,95447.84
2017-09-04T09:48:25.414Z,95460.13
2017-09-04T09:50:53.025Z,95470.12
2017-09-04T09:53:20.589Z,95467.99
2017-09-04T09:55:48.369Z,95463.70
2017-09-04T09:58:15.993Z,95468.38
2017-09-04T10:00:43.659Z,95463.72
2017-09-04T10:03:11.233Z,95454.25
2017-09-04T10:05:38.787Z,95456.63
2017-09-04T10:08:06.393Z,95456.34
2017-09-04T10:10:34.242Z,95458.72
2017-09-04T10:13:01.943Z,95447.63
2017-09-04T10:15:29.597Z,95463.55
2017-09-04T10:17:57.250Z,95454.70
2017-09-04T10:20:25.141Z,95451.55
2017-09-04T10:22:52.756Z,95447.45
2017-09-04T10:25:21.184Z,95451.65
2017-09-04T10:27:48.758Z,95447.84
2017-09-04T10:30:16.659Z,95443.47
2017-09-04T10:32:44.254Z,95450.15
2017-09-04T10:35:11.844Z,95439.61
2017-09-04T10:37:39.451Z,95451.66
2017-09-04T10:40:07.068Z,95454.35
2017-09-04T10:42:34.628Z,95453.65
2017-09-04T10:45:02.268Z,95440.22
2017-09-04T10:47:29.839Z,95449.47
2017-09-04T10:49:57.445Z,95448.25
2017-09-04T10:52:25.054Z,95439.49
2017-09-04T10:54:52.604Z,95444.11
2017-09-04T10:57:20.665Z,95433.34
2017-09-04T10:59:48.264Z,95438.41
2017-09-04T11:02:15.838Z,95432.61
2017-09-04T11:04:43.409Z,95437.48
2017-09-04T11:07:11.002Z,95441.72
2017-09-04T11:09:38.573Z,95432.66
2017-09-04T11:12:06.171Z,95435.20
2017-09-04T11:14:33.753Z,95442.39
2017-09-04T11:17:01.416Z,95442.86
2017-09-04T11:19:28.983Z,95431.73
2017-09-04T11:21:56.581Z,95434.31
2017-09-04T11:24:24.186Z,95443.05
2017-09-04T11:26:51.782Z,95436.13
2017-09-04T11:29:19.630Z,95432.23
2017-09-04T11:31:47.216Z,95442.30
2017-09-04T11:34:14.773Z,95434.42
2017-09-04T11:36:42.379Z,95434.06
2017-09-04T11:39:09.957Z,95435.06
2017-09-04T11:41:37.580Z,95430.44
2017-09-04T11:44:05.185Z,95432.75
2017-09-04T11:46:32.768Z,95435.50
2017-09-04T11:49:00.315Z,95428.13
2017-09-04T11:51:27.902Z,95437.78
2017-09-04T11:53:55.489Z,95436.46
2017-09-04T11:56:23.078Z,95436.17
2017-09-04T11:58:50.848Z,95427.66
2017-09-04T12:01:18.463Z,95426.09
2017-09-04T12:03:46.091Z,95432.27
2017-09-04T12:06:13.761Z,95435.63
2017-09-04T12:08:41.347Z,95427.66
2017-09-04T12:11:08.951Z,95431.84
2017-09-04T12:13:36.505Z,95429.41
2017-09-04T12:16:04.101Z,95441.05
2017-09-04T12:18:31.883Z,95437.63
2017-09-04T12:20:59.601Z,95434.91
2017-09-04T12:23:27.255Z,95428.24
2017-09-04T12:25:54.817Z,95435.23
2017-09-04T12:28:22.402Z,95432.16
2017-09-04T12:30:50.009Z,95431.66
2017-09-04T12:33:17.580Z,95428.81
2017-09-04T12:35:45.179Z,95436.44
2017-09-04T12:38:12.790Z,95439.12
2017-09-04T12:40:40.421Z,95433.83
2017-09-04T12:43:08.025Z,95433.84
2017-09-04T12:45:35.577Z,95432.30
2017-09-04T12:48:03.096Z,95439.09
2017-09-04T12:50:30.632Z,95441.83
2017-09-04T12:52:58.212Z,95441.84
2017-09-04T12:55:26.075Z,95442.09
2017-09-04T12:57:53.647Z,95448.83
2017-09-04T13:00:21.401Z,95443.47
2017-09-04T13:02:49.160Z,95439.52
2017-09-04T13:05:16.736Z,95448.62
2017-09-04T13:07:44.364Z,95440.56
2017-09-04T13:10:17.591Z,95450.02
2017-09-04T13:12:45.173Z,95446.52
2017-09-04T13:18:17.864Z,95454.92
2017-09-04T13:20:50.961Z,95456.01
2017-09-04T13:23:21.072Z,95452.66
2017-09-04T13:26:00.134Z,95444.38
2017-09-04T13:28:33.148Z,95461.09
2017-09-04T13:31:06.231Z,95449.77
2017-09-04T13:33:39.375Z,95448.05
2017-09-04T13:36:13.442Z,95448.45
2017-09-04T13:41:49.533Z,95444.25
2017-09-04T13:44:22.569Z,95455.32
2017-09-04T13:46:55.955Z,95447.30
2017-09-04T13:49:29.471Z,95466.02
2017-09-04T13:52:02.958Z,95463.72
2017-09-04T13:57:35.256Z,95453.97
2017-09-04T14:00:06.749Z,95465.14
2017-09-04T14:02:38.824Z,95460.15
2017-09-04T14:08:27.447Z,95463.39
2017-09-04T14:14:04.131Z,95466.74
2017-09-04T14:16:37.259Z,95456.96
2017-09-04T14:19:04.800Z,95460.98
2017-09-04T14:21:33.272Z,95467.27
2017-09-04T14:24:00.864Z,95462.62
2017-09-04T14:26:28.475Z,95463.48
2017-09-04T14:28:56.064Z,95464.78
2017-09-04T14:31:23.725Z,95467.62
2017-09-04T14:33:51.485Z,95468.11
2017-09-04T14:36:20.621Z,95458.55
2017-09-04T14:38:48.882Z,95473.89
2017-09-04T14:41:17.431Z,95475.83
2017-09-04T14:46:54.357Z,95469.98
2017-09-04T14:49:22.006Z,95471.00
2017-09-04T14:51:49.619Z,95474.52
2017-09-04T14:54:17.428Z,95478.42
2017-09-04T14:56:45.011Z,95475.52
2017-09-04T14:59:12.593Z,95478.73
2017-09-04T15:01:40.215Z,95481.07
2017-09-04T15:04:07.768Z,95476.78
2017-09-04T15:06:35.377Z,95480.20
2017-09-04T15:09:03.047Z,95486.84
2017-09-04T15:11:30.587Z,95479.53
2017-09-04T15:13:58.183Z,95480.36
2017-09-04T15:16:25.924Z,95487.86
2017-09-04T15:18:53.694Z,95487.64
2017-09-04T15:21:21.299Z,95485.91
2017-09-04T15:23:48.942Z,95480.36
2017-09-04T15:26:16.538Z,95492.16
2017-09-04T15:28:44.138Z,95482.45
2017-09-04T15:31:11.735Z,95482.52
2017-09-04T15:33:39.724Z,95473.11
2017-09-04T15:36:07.283Z,95485.09
2017-09-04T15:38:34.871Z,95491.97
2017-09-04T15:41:02.516Z,95487.70
2017-09-04T15:43:30.103Z,95485.53
2017-09-04T15:45:57.706Z,95496.94
2017-09-04T15:48:25.265Z,95487.69
2017-09-04T15:50:52.825Z,95485.93
2017-09-04T15:53:20.491Z,95492.73
2017-09-04T15:55:48.151Z,95491.75
2017-09-04T15:58:15.729Z,95490.65
2017-09-04T16:00:43.367Z,95497.08
2017-09-04T16:03:11.145Z,95499.24
2017-09-04T16:05:38.932Z,95507.50
2017-09-04T16:08:06.568Z,95498.56
2017-09-04T16:10:34.216Z,95503.86
2017-09-04T16:13:16.953Z,95503.12
2017-09-04T16:15:44.554Z,95512.30
2017-09-04T16:18:17.549Z,95507.42
2017-09-04T16:23:49.978Z,95522.61
2017-09-04T16:26:18.417Z,95521.25
2017-09-04T16:28:49.482Z,95529.77
2017-09-04T16:31:18.980Z,95527.81
2017-09-04T16:33:52.878Z,95530.97
2017-09-04T16:39:31.108Z,95532.59
2017-09-04T16:42:02.712Z,95535.52
2017-09-04T16:44:31.983Z,95534.02
2017-09-04T16:50:08.746Z,95536.38
2017-09-04T16:52:49.169Z,95541.47
2017-09-04T16:58:22.212Z,95536.80
2017-09-04T17:00:49.981Z,95545.80
2017-09-04T17:03:17.572Z,95548.18
2017-09-04T17:05:45.297Z,95541.72
2017-09-04T17:08:14.592Z,95545.45
2017-09-04T17:10:44.252Z,95548.02
2017-09-04T17:13:11.830Z,95549.37
2017-09-04T17:15:54.027Z,95556.06
2017-09-04T17:21:35.903Z,95569.22
2017-09-04T17:24:06.312Z,95568.61
2017-09-04T17:26:35.588Z,95575.86
2017-09-04T17:29:04.914Z,95572.16
2017-09-04T17:31:32.549Z,95579.22
2017-09-04T17:34:00.081Z,95583.13
2017-09-04T17:36:27.635Z,95589.97
2017-09-04T17:38:55.480Z,95593.51
2017-09-04T17:41:23.090Z,95598.23
2017-09-04T17:43:50.652Z,95596.86
2017-09-04T17:46:19.357Z,95602.73
2017-09-04T17:48:47.789Z,95602.30
2017-09-04T17:51:15.569Z,95607.78
2017-09-04T17:53:43.293Z,95609.19
2017-09-04T17:56:12.518Z,95612.53
2017-09-04T17:58:41.998Z,95614.62
2017-09-04T18:01:10.746Z,95618.16
2017-09-04T18:03:38.559Z,95617.23
2017-09-04T18:06:06.128Z,95622.70
2017-09-04T18:08:33.730Z,95628.58
2017-09-04T18:11:01.345Z,95635.00
2017-09-04T18:13:28.893Z,95636.55
2017-09-04T18:15:56.512Z,95642.59
2017-09-04T18:18:25.823Z,95641.62
2017-09-04T18:20:53.456Z,95640.77
2017-09-04T18:23:22.145Z,95649.41
2017-09-04T18:25:49.721Z,95650.61
2017-09-04T18:28:17.328Z,95659.03
2017-09-04T18:30:44.928Z,95666.04
2017-09-04T18:33:12.593Z,95651.41
2017-09-04T18:35:40.312Z,95670.59
2017-09-04T18:38:07.912Z,95674.08
2017-09-04T18:40:35.739Z,95681.67
2017-09-04T18:43:03.342Z,95675.81
2017-09-04T18:45:31.040Z,95681.67
2017-09-04T18:47:59.539Z,95677.28
2017-09-04T18:50:27.120Z,95681.24
2017-09-04T18:52:55.139Z,95677.10
2017-09-04T18:55:22.953Z,95682.40
2017-09-04T18:57:50.537Z,95686.41
2017-09-04T19:00:18.247Z,95691.31
2017-09-04T19:02:46.040Z,95689.15
2017-09-04T19:05:13.655Z,95692.97
2017-09-04T19:07:41.231Z,95682.13
2017-09-04T19:10:09.428Z,95689.64
2017-09-04T19:12:36.985Z,95695.56
2017-09-04T19:15:04.575Z,95693.48
2017-09-04T19:17:32.212Z,95686.60
2017-09-04T19:19:59.790Z,95688.28
2017-09-04T19:22:28.231Z,95690.05
2017-09-04T19:24:56.787Z,95693.17
2017-09-04T19:27:24.542Z,95700.19
2017-09-04T19:29:52.156Z,95703.08
2017-09-04T19:32:19.752Z,95707.02
2017-09-04T19:34:47.385Z,95715.24
2017-09-04T19:37:14.962Z,95712.24
2017-09-04T19:39:42.642Z,95721.54
2017-09-04T19:42:10.184Z,95722.09
2017-09-04T19:44:37.750Z,95711.90
2017-09-04T19:47:05.404Z,95717.70
2017-09-04T19:49:32.986Z,95720.73
2017-09-04T19:52:00.571Z,95725.39
2017-09-04T19:54:28.638Z,95724.49
2017-09-04T19:56:56.294Z,95723.13
2017-09-04T19:59:23.840Z,95729.03
2017-09-04T20:01:51.872Z,95724.55
2017-09-04T20:04:20.438Z,95726.09
2017-09-04T20:06:48.114Z,95727.69
2017-09-04T20:09:15.833Z,95729.79
2017-09-04T20:11:43.395Z,95726.94
2017-09-04T20:14:11.216Z,95736.31
2017-09-04T20:16:38.893Z,95741.55
2017-09-04T20:19:06.498Z,95737.19
2017-09-04T20:21:34.111Z,95732.34
2017-09-04T20:24:01.772Z,95740.43
2017-09-04T20:26:31.262Z,95742.98
2017-09-04T20:29:00.375Z,95750.07
2017-09-04T20:31:29.214Z,95742.94
2017-09-04T20:33:58.302Z,95748.89
2017-09-04T20:36:27.197Z,95747.20
2017-09-04T20:38:56.076Z,95755.63
2017-09-04T20:41:24.671Z,95751.11
2017-09-04T20:43:52.230Z,95752.98
2017-09-04T20:46:19.858Z,95757.63
2017-09-04T20:48:47.460Z,95751.29
2017-09-04T20:51:15.865Z,95753.13
2017-09-04T20:53:43.437Z,95754.24
2017-09-04T20:56:10.992Z,95755.64
2017-09-04T20:58:38.606Z,95752.18
2017-09-04T21:01:06.221Z,95754.00
2017-09-04T21:03:33.874Z,95758.44
2017-09-04T21:06:01.482Z,95760.61
2017-09-04T21:08:29.059Z,95753.31
2017-09-04T21:10:56.659Z,95759.80
2017-09-04T21:13:24.293Z,95757.81
2017-09-04T21:15:51.914Z,95762.16
2017-09-04T21:18:19.548Z,95761.88
2017-09-04T21:20:47.164Z,95761.42
2017-09-04T21:23:14.758Z,95759.77
2017-09-04T21:25:42.360Z,95759.62
2017-09-04T21:28:09.983Z,95760.00
2017-09-04T21:30:37.581Z,95760.76
2017-09-04T21:33:05.154Z,95759.16
2017-09-04T21:35:32.689Z,95762.75
2017-09-04T21:38:00.502Z,95771.09
2017-09-04T21:40:28.187Z,95772.73
2017-09-04T21:42:55.757Z,95769.89
2017-09-04T21:45:23.333Z,95772.17
2017-09-04T21:47:50.863Z,95774.55
2017-09-04T21:50:18.366Z,95778.23
2017-09-04T21:52:45.936Z,95782.50
2017-09-04T21:55:13.475Z,95782.90
2017-09-04T21:57:41.052Z,95786.39
2017-09-04T22:00:08.704Z,95784.05
2017-09-04T22:02:36.215Z,95777.84
2017-09-04T22:05:03.795Z,95792.73
2017-09-04T22:07:31.346Z,95784.45
2017-09-04T22:09:58.853Z,95789.11
2017-09-04T22:12:26.389Z,95780.98
2017-09-04T22:14:54.169Z,95783.09
2017-09-04T22:17:21.733Z,95787.55
2017-09-04T22:19:49.314Z,95790.14
2017-09-04T22:22:16.885Z,95789.41
2017-09-04T22:24:44.460Z,95792.18
2017-09-04T22:27:12.013Z,95781.03
2017-09-04T22:29:39.878Z,95785.47
2017-09-04T22:32:07.624Z,95790.64
2017-09-04T22:34:35.303Z,95792.75
2017-09-04T22:37:02.865Z,95790.84
2017-09-04T22:39:30.471Z,95797.67
2017-09-04T22:41:58.086Z,95798.36
2017-09-04T22:44:25.683Z,95791.94
2017-09-04T22:46:53.256Z,95797.02
2017-09-04T22:49:20.800Z,95799.15
2017-09-04T22:51:48.406Z,95805.20
2017-09-04T22:54:15.994Z,95803.84
2017-09-04T22:56:43.633Z,95796.70
2017-09-04T22:59:11.250Z,95804.91
2017-09-04T23:01:38.835Z,95807.88
2017-09-04T23:04:06.423Z,95808.90
2017-09-04T23:06:33.994Z,95803.20
2017-09-04T23:09:01.622Z,95809.02
2017-09-04T23:11:29.206Z,95802.22
2017-09-04T23:13:56.769Z,95808.73
2017-09-04T23:16:24.325Z,95803.98
2017-09-04T23:18:51.876Z,95797.98
2017-09-04T23:21:19.447Z,95797.62
2017-09-04T23:23:47.019Z,95794.08
2017-09-04T23:26:14.572Z,95795.47
2017-09-04T23:28:42.131Z,95794.30
2017-09-04T23:31:09.743Z,95795.53
2017-09-04T23:33:37.301Z,95792.55
2017-09-04T23:36:04.909Z,95798.71
2017-09-04T23:38:32.505Z,95806.38
2017-09-04T23:41:00.026Z,95809.05
2017-09-04T23:43:27.565Z,95809.22
2017-09-04T23:45:55.152Z,95800.58
2017-09-04T23:48:22.897Z,95804.97
2017-09-04T23:50:50.425Z,95808.69
2017-09-04T23:53:18.001Z,95805.33
2017-09-04T23:55:45.613Z,95798.69
2017-09-04T23:58:13.171Z,95806.56
